createdAt,value
2023-04-01T00:02:01.777Z,6.27
2023-04-01T00:04:31.122Z,6.30
2023-04-01T00:07:00.975Z,6.31
2023-04-01T00:09:30.110Z,6.34
2023-04-01T00:12:00.208Z,6.35
2023-04-01T00:14:30.542Z,6.35
2023-04-01T00:16:59.775Z,6.36
2023-04-01T00:19:29.949Z,6.37
2023-04-01T00:22:00.702Z,6.35
2023-04-01T00:24:32.070Z,6.34
2023-04-01T00:27:01.399Z,6.32
2023-04-01T00:29:31.886Z,6.32
2023-04-01T00:32:01.293Z,6.32
2023-04-01T00:34:30.724Z,6.32
2023-04-01T00:37:01.799Z,6.33
2023-04-01T00:39:32.782Z,6.33
2023-04-01T00:42:04.514Z,6.33
2023-04-01T00:44:36.292Z,6.34
2023-04-01T00:47:06.525Z,6.34
2023-04-01T00:49:42.442Z,6.32
2023-04-01T00:52:15.561Z,6.30
2023-04-01T00:54:49.762Z,6.27
2023-04-01T00:57:48.726Z,6.25
2023-04-01T01:00:20.134Z,6.24
2023-04-01T01:02:53.130Z,6.23
2023-04-01T01:05:48.152Z,6.23
2023-04-01T01:08:54.205Z,6.22
2023-04-01T01:11:42.739Z,6.14
2023-04-01T01:14:35.641Z,6.10
2023-04-01T01:17:27.894Z,6.09
2023-04-01T01:20:31.774Z,6.12
2023-04-01T01:23:22.327Z,6.15
2023-04-01T01:26:10.462Z,6.19
2023-04-01T01:28:52.830Z,6.23
2023-04-01T01:31:36.496Z,6.25
2023-04-01T01:34:25.688Z,6.27
2023-04-01T01:36:59.377Z,6.29
2023-04-01T01:39:35.236Z,6.32
2023-04-01T01:42:09.638Z,6.34
2023-04-01T01:44:43.143Z,6.37
2023-04-01T01:47:13.344Z,6.34
2023-04-01T01:49:43.710Z,6.25
2023-04-01T01:52:14.642Z,6.17
2023-04-01T01:54:53.114Z,6.13
2023-04-01T01:57:38.001Z,6.09
2023-04-01T02:00:16.808Z,6.06
2023-04-01T02:02:49.225Z,6.05
2023-04-01T02:05:26.304Z,6.03
2023-04-01T02:08:09.040Z,6.01
2023-04-01T02:10:44.086Z,6.01
2023-04-01T02:14:00.254Z,6.03
2023-04-01T02:16:36.155Z,6.04
2023-04-01T02:19:11.940Z,6.04
2023-04-01T02:21:44.143Z,6.02
2023-04-01T02:24:17.039Z,6.03
2023-04-01T02:26:47.620Z,6.04
2023-04-01T02:29:20.909Z,6.05
2023-04-01T02:31:52.052Z,6.07
2023-04-01T02:34:23.054Z,6.09
2023-04-01T02:36:54.688Z,6.11
2023-04-01T02:39:24.783Z,6.14
2023-04-01T02:41:53.858Z,6.16
2023-04-01T02:44:22.871Z,6.17
2023-04-01T02:46:52.027Z,6.21
2023-04-01T02:49:21.420Z,6.24
2023-04-01T02:51:51.756Z,6.27
2023-04-01T02:54:22.602Z,6.30
2023-04-01T02:56:52.991Z,6.32
2023-04-01T02:59:23.384Z,6.34
2023-04-01T03:01:54.079Z,6.36
2023-04-01T03:04:23.745Z,6.40
2023-04-01T03:06:53.560Z,6.45
2023-04-01T03:09:23.310Z,6.48
2023-04-01T03:11:52.681Z,6.51
2023-04-01T03:14:22.447Z,6.52
2023-04-01T03:16:51.618Z,6.54
2023-04-01T03:19:21.945Z,6.54
2023-04-01T03:21:51.700Z,6.58
2023-04-01T03:24:22.313Z,6.58
2023-04-01T03:26:52.601Z,6.59
2023-04-01T03:29:22.967Z,6.59
2023-04-01T03:31:52.420Z,6.59
2023-04-01T03:34:21.688Z,6.58
2023-04-01T03:36:50.960Z,6.58
2023-04-01T03:39:20.604Z,6.58
2023-04-01T03:41:50.583Z,6.58
2023-04-01T03:44:19.886Z,6.57
2023-04-01T03:46:50.755Z,6.55
2023-04-01T03:49:19.948Z,6.54
2023-04-01T03:51:49.742Z,6.54
2023-04-01T03:54:21.918Z,6.54
2023-04-01T03:56:52.736Z,6.54
2023-04-01T03:59:22.898Z,6.53
2023-04-01T04:01:52.083Z,6.53
2023-04-01T04:04:21.367Z,6.54
2023-04-01T04:06:50.686Z,6.51
2023-04-01T04:09:20.370Z,6.51
2023-04-01T04:11:51.434Z,6.49
2023-04-01T04:14:20.803Z,6.48
2023-04-01T04:16:50.332Z,6.49
2023-04-01T04:19:19.432Z,6.49
2023-04-01T04:21:48.295Z,6.51
2023-04-01T04:24:17.372Z,6.53
2023-04-01T04:27:05.642Z,6.53
2023-04-01T04:29:34.909Z,6.55
2023-04-01T04:32:04.381Z,6.57
2023-04-01T04:34:34.043Z,6.59
2023-04-01T04:37:03.403Z,6.61
2023-04-01T04:39:34.983Z,6.63
2023-04-01T04:42:04.228Z,6.66
2023-04-01T04:44:33.187Z,6.66
2023-04-01T04:47:03.205Z,6.67
2023-04-01T04:49:32.317Z,6.68
2023-04-01T04:52:01.865Z,6.69
2023-04-01T04:54:31.435Z,6.71
2023-04-01T04:57:01.552Z,6.71
2023-04-01T04:59:33.405Z,6.73
2023-04-01T05:02:08.926Z,6.74
2023-04-01T05:04:38.116Z,6.74
2023-04-01T05:07:08.340Z,6.75
2023-04-01T05:09:37.447Z,6.74
2023-04-01T05:12:06.775Z,6.75
2023-04-01T05:14:58.676Z,6.73
2023-04-01T05:17:27.733Z,6.72
2023-04-01T05:19:56.396Z,6.72
2023-04-01T05:22:25.572Z,6.72
2023-04-01T05:24:54.957Z,6.70
2023-04-01T05:27:24.681Z,6.66
2023-04-01T05:29:53.548Z,6.60
2023-04-01T05:32:51.949Z,6.53
2023-04-01T05:35:20.677Z,6.47
2023-04-01T05:37:49.401Z,6.47
2023-04-01T05:40:18.685Z,6.41
2023-04-01T05:42:47.225Z,6.39
2023-04-01T05:45:16.950Z,6.33
2023-04-01T05:48:04.862Z,6.29
2023-04-01T05:50:40.887Z,6.27
2023-04-01T05:53:09.452Z,6.23
2023-04-01T05:55:38.144Z,6.21
2023-04-01T05:58:06.943Z,6.20
2023-04-01T06:00:36.164Z,6.20
2023-04-01T06:03:05.011Z,6.20
2023-04-01T06:05:42.744Z,6.22
2023-04-01T06:08:19.866Z,6.24
2023-04-01T06:11:25.082Z,6.27
2023-04-01T06:14:01.856Z,6.31
2023-04-01T06:16:37.227Z,6.34
2023-04-01T06:19:21.077Z,6.34
2023-04-01T06:22:14.706Z,6.34
2023-04-01T06:25:01.568Z,6.36
2023-04-01T06:27:52.917Z,6.39
2023-04-01T06:30:36.977Z,6.39
2023-04-01T06:33:31.840Z,6.43
2023-04-01T06:36:25.231Z,6.48
2023-04-01T06:39:21.905Z,6.58
2023-04-01T06:42:16.730Z,6.68
2023-04-01T06:45:21.944Z,6.77
2023-04-01T06:48:19.367Z,6.90
2023-04-01T06:51:33.166Z,7.07
2023-04-01T06:54:36.279Z,7.21
2023-04-01T06:57:21.151Z,7.26
2023-04-01T06:59:50.294Z,7.26
2023-04-01T07:02:44.495Z,7.25
2023-04-01T07:05:16.384Z,7.27
2023-04-01T07:07:50.574Z,7.27
2023-04-01T07:10:27.295Z,7.28
2023-04-01T07:13:29.744Z,7.28
2023-04-01T07:16:14.156Z,7.28
2023-04-01T07:18:59.535Z,7.31
2023-04-01T07:21:46.076Z,7.37
2023-04-01T07:24:35.992Z,7.40
2023-04-01T07:27:12.195Z,7.44
2023-04-01T07:29:41.804Z,7.48
2023-04-01T07:32:17.732Z,7.53
2023-04-01T07:34:57.759Z,7.61
2023-04-01T07:37:45.542Z,7.70
2023-04-01T07:40:30.496Z,7.78
2023-04-01T07:43:07.371Z,7.86
2023-04-01T07:45:52.046Z,7.94
2023-04-01T07:48:21.354Z,7.98
2023-04-01T07:51:04.480Z,7.99
2023-04-01T07:54:02.654Z,8.00
2023-04-01T07:57:07.367Z,8.01
2023-04-01T08:00:01.506Z,8.03
2023-04-01T08:02:53.787Z,8.02
2023-04-01T08:05:56.506Z,8.02
2023-04-01T08:09:01.412Z,8.05
2023-04-01T08:11:54.617Z,8.08
2023-04-01T08:15:05.708Z,8.11
2023-04-01T08:17:52.141Z,8.16
2023-04-01T08:20:29.843Z,8.25
2023-04-01T08:23:06.950Z,8.31
2023-04-01T08:25:42.318Z,8.36
2023-04-01T08:28:18.220Z,8.45
2023-04-01T08:31:01.877Z,8.55
2023-04-01T08:33:33.468Z,8.65
2023-04-01T08:36:18.411Z,8.75
2023-04-01T08:39:03.501Z,8.83
2023-04-01T08:41:54.683Z,8.92
2023-04-01T08:44:47.785Z,8.94
2023-04-01T08:47:41.712Z,8.94
2023-04-01T08:50:47.609Z,9.02
2023-04-01T08:53:26.142Z,9.04
2023-04-01T08:56:16.140Z,9.08
2023-04-01T08:59:15.919Z,9.20
2023-04-01T09:02:00.684Z,9.31
2023-04-01T09:05:07.959Z,9.41
2023-04-01T09:07:54.938Z,9.48
2023-04-01T09:10:37.852Z,9.55
2023-04-01T09:13:44.317Z,9.55
2023-04-01T09:16:37.914Z,9.61
2023-04-01T09:19:06.678Z,9.65
2023-04-01T09:21:44.349Z,9.71
2023-04-01T09:24:23.265Z,9.70
2023-04-01T09:27:03.948Z,9.70
2023-04-01T09:30:10.280Z,9.77
2023-04-01T09:32:41.709Z,9.84
2023-04-01T09:36:03.469Z,9.90
2023-04-01T09:38:58.899Z,9.94
2023-04-01T09:41:27.998Z,9.89
2023-04-01T09:44:31.635Z,9.86
2023-04-01T09:47:36.451Z,9.81
2023-04-01T09:50:06.682Z,9.78
2023-04-01T09:52:38.875Z,9.80
2023-04-01T09:55:58.952Z,9.84
2023-04-01T09:58:43.811Z,9.90
2023-04-01T10:01:40.131Z,9.95
2023-04-01T10:04:41.832Z,9.99
2023-04-01T10:07:13.630Z,10.03
2023-04-01T10:10:07.047Z,10.08
2023-04-01T10:13:02.655Z,10.11
2023-04-01T10:15:57.085Z,10.14
2023-04-01T10:18:44.502Z,10.16
2023-04-01T10:21:51.691Z,10.16
2023-04-01T10:24:39.210Z,10.18
2023-04-01T10:27:23.960Z,10.14
2023-04-01T10:30:30.778Z,10.17
2023-04-01T10:33:07.835Z,10.17
2023-04-01T10:36:09.469Z,10.15
2023-04-01T10:39:35.679Z,10.19
2023-04-01T10:42:57.616Z,10.18
2023-04-01T10:46:19.745Z,10.13
2023-04-01T10:49:19.312Z,10.08
2023-04-01T10:52:01.226Z,10.03
2023-04-01T10:55:01.949Z,9.98
2023-04-01T10:57:56.242Z,9.91
2023-04-01T11:00:55.912Z,9.89
2023-04-01T11:03:56.458Z,9.87
2023-04-01T11:07:08.948Z,9.84
2023-04-01T11:09:59.545Z,9.79
2023-04-01T11:12:28.217Z,9.76
2023-04-01T11:15:15.774Z,9.72
2023-04-01T11:18:17.138Z,9.66
2023-04-01T11:21:03.954Z,9.63
2023-04-01T11:24:05.739Z,9.60
2023-04-01T11:27:12.406Z,9.58
2023-04-01T11:30:00.268Z,9.57
2023-04-01T11:32:56.379Z,9.57
2023-04-01T11:36:09.209Z,9.54
2023-04-01T11:38:47.245Z,9.46
2023-04-01T11:41:53.371Z,9.38
2023-04-01T11:44:44.683Z,9.32
2023-04-01T11:47:37.774Z,9.30
2023-04-01T11:50:25.395Z,9.30
2023-04-01T11:53:06.832Z,9.31
2023-04-01T11:55:48.633Z,9.36
2023-04-01T11:58:35.741Z,9.44
2023-04-01T12:01:38.937Z,9.53
2023-04-01T12:04:31.936Z,9.62
2023-04-01T12:07:44.245Z,9.68
2023-04-01T12:10:32.462Z,9.79
2023-04-01T12:13:33.145Z,9.85
2023-04-01T12:16:18.030Z,9.94
2023-04-01T12:18:52.451Z,10.03
2023-04-01T12:21:38.465Z,10.11
2023-04-01T12:24:27.326Z,10.20
2023-04-01T12:27:01.759Z,10.30
2023-04-01T12:29:50.010Z,10.34
2023-04-01T12:32:27.630Z,10.43
2023-04-01T12:35:08.393Z,10.52
2023-04-01T12:38:00.853Z,10.60
2023-04-01T12:40:57.451Z,10.75
2023-04-01T12:43:58.391Z,10.91
2023-04-01T12:46:54.182Z,11.11
2023-04-01T12:50:01.637Z,11.24
2023-04-01T12:53:04.407Z,11.34
2023-04-01T12:55:45.771Z,11.44
2023-04-01T12:58:24.107Z,11.52
2023-04-01T13:01:30.730Z,11.59
2023-04-01T13:04:20.688Z,11.67
2023-04-01T13:07:13.596Z,11.85
2023-04-01T13:09:54.452Z,11.99
2023-04-01T13:12:57.168Z,12.30
2023-04-01T13:15:54.007Z,13.00
2023-04-01T13:18:54.934Z,14.25
2023-04-01T13:21:45.706Z,15.48
2023-04-01T13:24:29.578Z,16.26
2023-04-01T13:27:20.073Z,16.59
2023-04-01T13:30:22.714Z,16.32
2023-04-01T13:32:56.975Z,16.37
2023-04-01T13:35:40.796Z,16.65
2023-04-01T13:38:44.795Z,16.99
2023-04-01T13:41:44.245Z,16.90
2023-04-01T13:44:16.876Z,16.82
2023-04-01T13:46:55.001Z,16.73
2023-04-01T13:49:57.485Z,16.47
2023-04-01T13:52:59.641Z,15.62
2023-04-01T13:56:06.198Z,15.35
2023-04-01T13:59:00.391Z,15.10
2023-04-01T14:01:50.318Z,14.95
2023-04-01T14:04:24.481Z,14.95
2023-04-01T14:07:18.474Z,15.13
2023-04-01T14:10:14.504Z,15.19
2023-04-01T14:12:45.960Z,15.55
2023-04-01T14:15:40.033Z,15.56
2023-04-01T14:18:27.782Z,15.52
2023-04-01T14:21:20.211Z,15.47
2023-04-01T14:24:16.328Z,15.28
2023-04-01T14:27:03.362Z,15.21
2023-04-01T14:29:53.432Z,14.97
2023-04-01T14:32:47.943Z,14.86
2023-04-01T14:35:39.186Z,14.65
2023-04-01T14:38:13.373Z,14.51
2023-04-01T14:40:53.772Z,14.35
2023-04-01T14:43:29.136Z,14.26
2023-04-01T14:46:35.358Z,13.98
2023-04-01T14:49:35.423Z,13.75
2023-04-01T14:52:17.036Z,13.57
2023-04-01T14:54:48.056Z,13.46
2023-04-01T14:57:29.626Z,13.28
2023-04-01T15:00:07.790Z,13.21
2023-04-01T15:03:20.741Z,13.18
2023-04-01T15:05:55.249Z,13.14
2023-04-01T15:08:24.007Z,13.00
2023-04-01T15:11:16.744Z,12.94
2023-04-01T15:14:19.724Z,12.92
2023-04-01T15:16:51.456Z,12.90
2023-04-01T15:19:42.154Z,12.86
2023-04-01T15:22:41.223Z,12.84
2023-04-01T15:25:44.793Z,12.82
2023-04-01T15:28:44.446Z,12.76
2023-04-01T15:31:19.116Z,12.68
2023-04-01T15:34:04.834Z,12.66
2023-04-01T15:36:52.799Z,12.61
2023-04-01T15:39:40.001Z,12.54
2023-04-01T15:42:20.334Z,12.43
2023-04-01T15:45:00.796Z,12.34
2023-04-01T15:47:36.512Z,12.21
2023-04-01T15:50:38.312Z,12.08
2023-04-01T15:53:19.103Z,12.02
2023-04-01T15:55:56.022Z,11.94
2023-04-01T15:58:42.709Z,11.85
2023-04-01T16:01:27.631Z,11.75
2023-04-01T16:04:33.957Z,11.64
2023-04-01T16:07:37.293Z,11.52
2023-04-01T16:10:23.189Z,11.40
2023-04-01T16:13:02.575Z,11.30
2023-04-01T16:15:46.425Z,11.20
2023-04-01T16:18:39.168Z,11.06
2023-04-01T16:21:39.591Z,10.95
2023-04-01T16:24:39.725Z,10.82
2023-04-01T16:27:23.491Z,10.70
2023-04-01T16:30:29.865Z,10.61
2023-04-01T16:33:21.688Z,10.55
2023-04-01T16:35:56.931Z,10.45
2023-04-01T16:38:32.714Z,10.39
2023-04-01T16:41:04.065Z,10.33
2023-04-01T16:43:49.135Z,10.29
2023-04-01T16:46:28.655Z,10.27
2023-04-01T16:49:12.720Z,10.24
2023-04-01T16:52:04.139Z,10.22
2023-04-01T16:54:45.486Z,10.18
2023-04-01T16:57:32.334Z,10.12
2023-04-01T17:00:25.205Z,10.05
2023-04-01T17:03:05.946Z,9.98
2023-04-01T17:06:03.605Z,9.92
2023-04-01T17:08:37.957Z,9.85
2023-04-01T17:11:28.654Z,9.81
2023-04-01T17:14:06.330Z,9.79
2023-04-01T17:16:46.184Z,9.78
2023-04-01T17:19:14.773Z,9.76
2023-04-01T17:21:43.274Z,9.70
2023-04-01T17:24:39.278Z,9.65
2023-04-01T17:27:33.322Z,9.62
2023-04-01T17:30:18.210Z,9.60
2023-04-01T17:33:17.123Z,9.60
2023-04-01T17:36:08.665Z,9.59
2023-04-01T17:38:40.113Z,9.57
2023-04-01T17:41:29.990Z,9.53
2023-04-01T17:44:22.678Z,9.49
2023-04-01T17:47:11.247Z,9.44
2023-04-01T17:49:58.132Z,9.41
2023-04-01T17:52:39.156Z,9.41
2023-04-01T17:55:29.423Z,9.40
2023-04-01T17:58:42.687Z,9.39
2023-04-01T18:01:13.819Z,9.38
2023-04-01T18:03:58.062Z,9.37
2023-04-01T18:06:38.561Z,9.36
2023-04-01T18:09:16.035Z,9.35
2023-04-01T18:12:07.978Z,9.32
2023-04-01T18:14:46.098Z,9.32
2023-04-01T18:17:17.281Z,9.31
2023-04-01T18:19:57.504Z,9.31
2023-04-01T18:22:52.879Z,9.30
2023-04-01T18:25:29.904Z,9.28
2023-04-01T18:28:22.792Z,9.24
2023-04-01T18:31:12.441Z,9.23
2023-04-01T18:34:08.430Z,9.21
2023-04-01T18:36:48.469Z,9.19
2023-04-01T18:39:29.761Z,9.19
2023-04-01T18:42:21.429Z,9.18
2023-04-01T18:45:08.001Z,9.18
2023-04-01T18:47:47.008Z,9.18
2023-04-01T18:50:34.689Z,9.19
2023-04-01T18:53:30.217Z,9.18
2023-04-01T18:56:16.491Z,9.17
2023-04-01T18:59:03.245Z,9.16
2023-04-01T19:01:41.469Z,9.13
2023-04-01T19:04:27.252Z,9.12
2023-04-01T19:06:59.798Z,9.10
2023-04-01T19:09:31.778Z,9.09
2023-04-01T19:12:18.781Z,9.08
2023-04-01T19:14:50.453Z,9.06
2023-04-01T19:17:45.347Z,9.02
2023-04-01T19:20:37.190Z,8.97
2023-04-01T19:23:53.840Z,8.94
2023-04-01T19:26:31.618Z,8.89
2023-04-01T19:29:33.124Z,8.84
2023-04-01T19:32:25.038Z,8.81
2023-04-01T19:35:29.061Z,8.78
2023-04-01T19:38:09.491Z,8.76
2023-04-01T19:40:49.334Z,8.75
2023-04-01T19:43:20.445Z,8.73
2023-04-01T19:46:04.104Z,8.72
2023-04-01T19:48:44.823Z,8.71
2023-04-01T19:51:43.102Z,8.69
2023-04-01T19:54:31.968Z,8.65
2023-04-01T19:57:29.214Z,8.63
2023-04-01T20:00:19.397Z,8.60
2023-04-01T20:02:52.292Z,8.57
2023-04-01T20:05:39.542Z,8.52
2023-04-01T20:08:32.802Z,8.47
2023-04-01T20:11:16.893Z,8.44
2023-04-01T20:13:51.158Z,8.42
2023-04-01T20:16:20.005Z,8.41
2023-04-01T20:19:01.523Z,8.41
2023-04-01T20:21:51.145Z,8.41
2023-04-01T20:24:34.276Z,8.41
2023-04-01T20:27:24.201Z,8.42
2023-04-01T20:30:23.140Z,8.44
2023-04-01T20:32:57.601Z,8.45
2023-04-01T20:35:51.467Z,8.45
2023-04-01T20:38:41.813Z,8.45
2023-04-01T20:41:34.009Z,8.46
2023-04-01T20:44:20.764Z,8.46
2023-04-01T20:47:39.944Z,8.45
2023-04-01T20:50:08.639Z,8.43
2023-04-01T20:52:57.140Z,8.42
2023-04-01T20:55:44.383Z,8.40
2023-04-01T20:58:30.783Z,8.36
2023-04-01T21:01:28.685Z,8.33
2023-04-01T21:04:20.312Z,8.29
2023-04-01T21:06:57.688Z,8.25
2023-04-01T21:09:41.839Z,8.22
2023-04-01T21:12:32.332Z,8.17
2023-04-01T21:15:20.334Z,8.13
2023-04-01T21:17:51.750Z,8.09
2023-04-01T21:21:04.028Z,8.06
2023-04-01T21:23:54.614Z,8.00
2023-04-01T21:26:47.895Z,7.95
2023-04-01T21:29:31.315Z,7.88
2023-04-01T21:32:21.360Z,7.81
2023-04-01T21:34:52.175Z,7.74
2023-04-01T21:37:30.727Z,7.70
2023-04-01T21:40:25.985Z,7.67
2023-04-01T21:43:18.297Z,7.65
2023-04-01T21:46:30.878Z,7.62
2023-04-01T21:49:21.217Z,7.60
2023-04-01T21:52:26.900Z,7.60
2023-04-01T21:55:36.899Z,7.59
2023-04-01T21:58:17.930Z,7.55
2023-04-01T22:00:55.725Z,7.53
2023-04-01T22:03:39.591Z,7.51
2023-04-01T22:06:27.013Z,7.49
2023-04-01T22:09:17.415Z,7.46
2023-04-01T22:12:05.603Z,7.42
2023-04-01T22:14:47.629Z,7.39
2023-04-01T22:17:20.333Z,7.36
2023-04-01T22:20:18.067Z,7.35
2023-04-01T22:23:14.543Z,7.33
2023-04-01T22:26:15.250Z,7.32
2023-04-01T22:29:01.238Z,7.32
2023-04-01T22:31:40.013Z,7.29
2023-04-01T22:34:22.917Z,7.28
2023-04-01T22:37:12.260Z,7.29
2023-04-01T22:40:18.427Z,7.31
2023-04-01T22:42:54.988Z,7.32
2023-04-01T22:45:58.682Z,7.33
2023-04-01T22:48:50.818Z,7.33
2023-04-01T22:51:28.634Z,7.35
2023-04-01T22:54:35.225Z,7.37
2023-04-01T22:57:14.772Z,7.40
2023-04-01T22:59:44.175Z,7.43
2023-04-01T23:02:18.402Z,7.45
2023-04-01T23:04:56.736Z,7.46
2023-04-01T23:07:36.689Z,7.47
2023-04-01T23:10:16.669Z,7.46
2023-04-01T23:12:48.121Z,7.47
2023-04-01T23:15:18.793Z,7.47
2023-04-01T23:18:05.851Z,7.48
2023-04-01T23:20:56.309Z,7.46
2023-04-01T23:24:00.877Z,7.43
2023-04-01T23:26:49.045Z,7.41
2023-04-01T23:29:19.907Z,7.40
2023-04-01T23:31:58.752Z,7.40
2023-04-01T23:34:32.788Z,7.38
2023-04-01T23:37:23.968Z,7.34
2023-04-01T23:39:57.562Z,7.31
2023-04-01T23:42:42.380Z,7.25
2023-04-01T23:45:18.782Z,7.19
2023-04-01T23:47:53.683Z,7.14
2023-04-01T23:50:27.014Z,7.09
2023-04-01T23:53:14.644Z,7.04
2023-04-01T23:55:44.693Z,6.99
2023-04-01T23:58:48.149Z,6.98
